Time;durP1;ratioP1;P1;durP2;ratioP2;P2;SDS_P1;SDS_P2;PMS_P1;PMS_P2;Temp;Humidity;BMP_temperature;BMP_pressure;BME280_temperature;BME280_humidity;BME280_pressure;Samples;Min_cycle;Max_cycle;Signal;HPM_P1;HPM_P2
2023/03/04 00:01:59;;;;;;;0.25;0.25;;;5.40;99.90;;;;;;6153207;23;20018;-90
2023/03/04 00:04:25;;;;;;;0.30;0.20;;;5.40;99.90;;;;;;6153133;23;20092;-90
2023/03/04 00:06:51;;;;;;;0.07;0.07;;;5.40;99.90;;;;;;6128482;23;20021;-90
2023/03/04 00:09:16;;;;;;;0.10;0.10;;;5.40;99.90;;;;;;6128595;23;20024;-90
2023/03/04 00:11:42;;;;;;;0.07;0.07;;;5.40;99.90;;;;;;6127652;23;20040;-90
2023/03/04 00:14:08;;;;;;;0.10;0.10;;;5.40;99.90;;;;;;6128231;23;20087;-90
2023/03/04 00:16:34;;;;;;;0.00;0.00;;;5.50;99.90;;;;;;6152624;23;20029;-89
2023/03/04 00:19:02;;;;;;;0.20;0.20;;;5.40;99.90;;;;;;6152673;23;20022;-90
2023/03/04 00:21:28;;;;;;;1.23;0.05;;;5.40;99.90;;;;;;6128285;23;20022;-89
2023/03/04 00:23:54;;;;;;;0.73;0.20;;;5.40;99.90;;;;;;6128497;23;20023;-89
2023/03/04 00:26:20;;;;;;;0.47;0.10;;;5.40;99.90;;;;;;6128420;23;20453;-90
2023/03/04 00:28:46;;;;;;;0.00;0.00;;;5.40;99.90;;;;;;6152722;23;20022;-90
2023/03/04 00:31:11;;;;;;;0.00;0.00;;;5.40;99.90;;;;;;6128981;23;20017;-90
2023/03/04 00:33:39;;;;;;;0.00;0.00;;;5.40;99.90;;;;;;6129843;23;20084;-90
2023/03/04 00:36:05;;;;;;;0.30;0.30;;;5.40;99.90;;;;;;6154750;23;20447;-90
2023/03/04 00:38:31;;;;;;;0.98;0.30;;;5.40;99.90;;;;;;6130073;23;20021;-89
2023/03/04 00:40:56;;;;;;;0.00;0.00;;;5.30;99.90;;;;;;6130301;23;20024;-90
2023/03/04 00:43:22;;;;;;;0.00;0.00;;;5.40;99.90;;;;;;6130248;23;20060;-90
2023/03/04 00:45:48;;;;;;;4.97;0.53;;;5.40;99.90;;;;;;6129910;23;20025;-90
2023/03/04 00:48:15;;;;;;;0.00;0.00;;;5.40;99.90;;;;;;6154489;23;20056;-90
2023/03/04 00:50:44;;;;;;;0.00;0.00;;;5.40;99.90;;;;;;6129591;23;20049;-90
2023/03/04 00:53:10;;;;;;;1.25;0.10;;;5.40;99.90;;;;;;6154760;23;20101;-90
2023/03/04 00:55:38;;;;;;;0.00;0.00;;;5.30;99.90;;;;;;6154167;23;20057;-90
2023/03/04 00:58:04;;;;;;;0.00;0.00;;;5.40;99.90;;;;;;6129851;23;20057;-90
2023/03/04 01:00:29;;;;;;;0.10;0.10;;;5.30;99.90;;;;;;6129995;23;20021;-90
2023/03/04 01:02:55;;;;;;;0.03;0.03;;;5.30;99.90;;;;;;6154090;23;20100;-90
2023/03/04 01:05:21;;;;;;;0.60;0.47;;;5.30;99.90;;;;;;6130373;23;20021;-90
2023/03/04 01:07:47;;;;;;;0.52;0.20;;;5.30;99.90;;;;;;6129419;23;20022;-90
2023/03/04 01:10:14;;;;;;;0.10;0.10;;;5.30;99.90;;;;;;6154808;23;20458;-91
2023/03/04 01:12:40;;;;;;;0.20;0.20;;;5.40;99.90;;;;;;6129648;23;20022;-90
2023/03/04 01:15:12;;;;;;;0.00;0.00;;;5.30;99.90;;;;;;6154371;23;20092;-90
2023/03/04 01:17:38;;;;;;;0.00;0.00;;;5.30;99.90;;;;;;6154140;23;20014;-89
2023/03/04 01:20:05;;;;;;;2.03;0.10;;;5.40;99.90;;;;;;6154296;23;20454;-89
2023/03/04 01:22:31;;;;;;;0.43;0.20;;;5.40;99.90;;;;;;6154400;23;20436;-90
2023/03/04 01:24:57;;;;;;;0.13;0.10;;;5.40;99.90;;;;;;6153940;23;20089;-90
2023/03/04 01:27:23;;;;;;;0.10;0.10;;;5.30;99.90;;;;;;6129761;23;20049;-90
2023/03/04 01:29:48;;;;;;;0.00;0.00;;;5.30;99.90;;;;;;6153641;23;20017;-90
2023/03/04 01:32:14;;;;;;;0.00;0.00;;;5.30;99.90;;;;;;6154232;23;20013;-90
2023/03/04 01:34:40;;;;;;;1.27;1.20;;;5.30;99.90;;;;;;6129654;23;20022;-89
2023/03/04 01:37:06;;;;;;;0.38;0.10;;;5.30;99.90;;;;;;6154776;23;20045;-90
2023/03/04 01:39:32;;;;;;;0.00;0.00;;;5.30;99.90;;;;;;6179512;23;20080;-90
2023/03/04 01:41:58;;;;;;;0.10;0.10;;;5.30;99.90;;;;;;6129554;23;20028;-90
2023/03/04 01:44:24;;;;;;;0.00;0.00;;;5.30;99.90;;;;;;6154118;23;20014;-90
2023/03/04 01:46:52;;;;;;;0.10;0.10;;;5.30;99.90;;;;;;6154168;23;20040;-90
2023/03/04 01:49:19;;;;;;;0.05;0.05;;;5.30;99.90;;;;;;6129934;23;20021;-91
2023/03/04 01:51:53;;;;;;;1.35;0.10;;;5.30;99.90;;;;;;6154221;23;20017;-90
2023/03/04 01:54:21;;;;;;;0.00;0.00;;;5.30;99.90;;;;;;6130314;23;20362;-90
2023/03/04 01:56:47;;;;;;;0.10;0.10;;;5.30;99.90;;;;;;6154147;23;20025;-90
2023/03/04 01:59:16;;;;;;;;;;;5.30;99.90;;;;;;6130384;23;20026;-90
2023/03/04 02:01:45;;;;;;;0.10;0.00;;;5.30;99.90;;;;;;6154636;23;19920;-90
2023/03/04 02:04:11;;;;;;;0.00;0.00;;;5.30;99.90;;;;;;6129934;23;20402;-90
2023/03/04 02:06:39;;;;;;;0.00;0.00;;;5.30;99.90;;;;;;6129381;23;20101;-90
2023/03/04 02:09:06;;;;;;;0.00;0.00;;;5.30;99.90;;;;;;6128415;23;20013;-90
2023/03/04 02:11:33;;;;;;;0.08;0.08;;;5.30;99.90;;;;;;6153797;23;20013;-90
2023/03/04 02:13:59;;;;;;;;;;;5.30;99.90;;;;;;6153305;23;20108;-90
2023/03/04 02:16:27;;;;;;;0.00;0.00;;;5.30;99.90;;;;;;6154126;23;19916;-90
2023/03/04 02:18:54;;;;;;;0.00;0.00;;;5.30;99.90;;;;;;6128417;23;20056;-90
2023/03/04 02:21:31;;;;;;;2.33;0.10;;;5.30;99.90;;;;;;6129116;23;20083;-90
2023/03/04 02:24:18;;;;;;;0.08;0.08;;;5.30;99.90;;;;;;6129087;23;20017;-90
2023/03/04 02:26:45;;;;;;;0.05;0.05;;;5.30;99.90;;;;;;6154004;23;20076;-91
2023/03/04 02:29:13;;;;;;;0.03;0.00;;;5.30;99.90;;;;;;6152806;23;20470;-90
2023/03/04 02:31:44;;;;;;;0.00;0.00;;;5.30;99.90;;;;;;6153603;23;20017;-90
2023/03/04 02:34:15;;;;;;;0.10;0.10;;;5.40;99.90;;;;;;6128495;23;20017;-90
2023/03/04 02:36:42;;;;;;;0.35;0.35;;;5.20;99.90;;;;;;6153713;23;20021;-90
2023/03/04 02:39:26;;;;;;;0.00;0.00;;;5.20;99.90;;;;;;6153064;23;20133;-90
2023/03/04 02:41:54;;;;;;;0.00;0.00;;;5.20;99.90;;;;;;6128336;23;20469;-90
2023/03/04 02:44:26;;;;;;;0.00;0.00;;;5.10;99.90;;;;;;6129066;23;20025;-90
2023/03/04 02:46:56;;;;;;;0.00;0.00;;;5.10;99.90;;;;;;6129143;23;20446;-90
2023/03/04 02:49:24;;;;;;;0.20;0.20;;;5.10;99.90;;;;;;6153432;23;20076;-90
2023/03/04 02:52:00;;;;;;;1.10;0.45;;;5.10;99.90;;;;;;6153453;23;20020;-89
2023/03/04 02:54:26;;;;;;;0.00;0.00;;;5.10;99.90;;;;;;6128980;23;20021;-90
2023/03/04 02:56:59;;;;;;;0.10;0.10;;;5.10;99.90;;;;;;6128436;23;20028;-89
2023/03/04 02:59:24;;;;;;;0.00;0.00;;;5.10;99.90;;;;;;6128978;23;20028;-90
2023/03/04 03:01:50;;;;;;;0.00;0.00;;;5.10;99.90;;;;;;6153740;23;20018;-90
2023/03/04 03:04:18;;;;;;;0.00;0.00;;;5.10;99.90;;;;;;6128872;23;20047;-91
2023/03/04 03:06:44;;;;;;;0.00;0.00;;;5.10;99.90;;;;;;6153488;23;20049;-90
2023/03/04 03:09:10;;;;;;;1.10;0.13;;;5.10;99.90;;;;;;6128583;23;20021;-90
2023/03/04 03:11:36;;;;;;;1.00;0.10;;;5.10;99.90;;;;;;6178006;23;20072;-90
2023/03/04 03:14:02;;;;;;;0.10;0.03;;;5.10;99.90;;;;;;6152699;23;20044;-90
2023/03/04 03:16:28;;;;;;;0.10;0.10;;;5.10;99.90;;;;;;6152986;23;20024;-90
2023/03/04 03:18:53;;;;;;;0.10;0.10;;;5.10;99.90;;;;;;6128301;23;20021;-89
2023/03/04 03:21:19;;;;;;;0.00;0.00;;;5.10;99.90;;;;;;6152811;23;20064;-90
2023/03/04 03:23:45;;;;;;;0.00;0.00;;;5.10;99.90;;;;;;6153292;23;20017;-90
2023/03/04 03:26:11;;;;;;;0.73;0.17;;;5.20;99.90;;;;;;6152912;23;20525;-89
2023/03/04 03:28:36;;;;;;;0.13;0.13;;;5.10;99.90;;;;;;6153672;23;20014;-89
2023/03/04 03:31:02;;;;;;;0.10;0.10;;;5.10;99.90;;;;;;6155114;23;20020;-90
2023/03/04 03:33:28;;;;;;;0.00;0.00;;;5.10;99.90;;;;;;6156469;23;20427;-90
2023/03/04 03:35:54;;;;;;;0.00;0.00;;;5.10;99.90;;;;;;6156164;23;20014;-90
2023/03/04 03:38:19;;;;;;;0.00;0.00;;;5.10;99.90;;;;;;6130851;23;20021;-89
2023/03/04 03:40:45;;;;;;;0.00;0.00;;;5.10;99.90;;;;;;6156397;23;20017;-90
2023/03/04 03:43:11;;;;;;;0.57;0.13;;;5.10;99.90;;;;;;6155023;23;20021;-90
2023/03/04 03:45:37;;;;;;;0.10;0.10;;;5.10;99.90;;;;;;6130498;23;20029;-90
2023/03/04 03:48:03;;;;;;;0.00;0.00;;;5.10;99.90;;;;;;6128678;23;20103;-89
2023/03/04 03:50:29;;;;;;;0.30;0.30;;;5.10;99.90;;;;;;6127687;23;20044;-90
2023/03/04 03:52:55;;;;;;;0.00;0.00;;;5.10;99.90;;;;;;6128469;23;20470;-90
2023/03/04 03:55:21;;;;;;;0.00;0.00;;;5.10;99.90;;;;;;6152639;23;20049;-90
2023/03/04 03:57:47;;;;;;;0.00;0.00;;;5.10;99.90;;;;;;6153118;23;20017;-90
2023/03/04 04:00:15;;;;;;;0.13;0.13;;;5.10;99.90;;;;;;6152534;23;20071;-90
2023/03/04 04:02:43;;;;;;;0.00;0.00;;;5.10;99.90;;;;;;6128390;23;20022;-89
2023/03/04 04:05:10;;;;;;;0.00;0.00;;;5.10;99.90;;;;;;6152584;23;20473;-90
2023/03/04 04:07:36;;;;;;;0.00;0.00;;;5.20;99.90;;;;;;6153084;23;20303;-90
2023/03/04 04:10:03;;;;;;;0.00;0.00;;;5.10;99.90;;;;;;6154970;23;20079;-90
2023/03/04 04:12:28;;;;;;;0.05;0.05;;;5.10;99.90;;;;;;6154857;23;20394;-90
2023/03/04 04:14:54;;;;;;;0.00;0.00;;;5.10;99.90;;;;;;6130433;23;20025;-90
2023/03/04 04:17:20;;;;;;;0.00;0.00;;;5.10;99.90;;;;;;6129790;23;20021;-90
2023/03/04 04:19:46;;;;;;;0.00;0.00;;;5.10;99.90;;;;;;6154438;23;20092;-90
2023/03/04 04:22:20;;;;;;;0.00;0.00;;;5.10;99.90;;;;;;6130077;23;20025;-91
2023/03/04 04:24:47;;;;;;;0.00;0.00;;;5.10;99.90;;;;;;6155153;23;20022;-90
2023/03/04 04:27:13;;;;;;;0.00;0.00;;;5.10;99.90;;;;;;6154609;23;20021;-90
2023/03/04 04:29:39;;;;;;;0.00;0.00;;;5.10;99.90;;;;;;6155147;23;20025;-91
2023/03/04 04:32:06;;;;;;;0.00;0.00;;;5.10;99.90;;;;;;6129838;23;20018;-89
2023/03/04 04:34:32;;;;;;;0.73;0.05;;;5.10;99.90;;;;;;6130204;23;20022;-90
2023/03/04 04:36:57;;;;;;;0.00;0.00;;;5.10;99.90;;;;;;6154912;23;20461;-91
2023/03/04 04:39:23;;;;;;;0.10;0.10;;;5.10;99.90;;;;;;6154705;23;20472;-90
2023/03/04 04:41:49;;;;;;;0.00;0.00;;;3.90;99.90;;;;;;6130512;23;20029;-90
2023/03/04 04:44:17;;;;;;;0.10;0.00;;;5.10;99.90;;;;;;6130261;23;20068;-90
2023/03/04 04:46:43;;;;;;;0.00;0.00;;;5.00;99.90;;;;;;6130765;23;20018;-90
2023/03/04 04:49:11;;;;;;;1.60;0.03;;;5.00;99.90;;;;;;6154932;23;20060;-89
2023/03/04 04:51:38;;;;;;;0.28;0.10;;;5.00;99.90;;;;;;6155061;23;20013;-90
2023/03/04 04:54:05;;;;;;;0.10;0.10;;;5.00;99.90;;;;;;6154576;23;20402;-90
2023/03/04 04:56:31;;;;;;;0.10;0.10;;;5.00;99.90;;;;;;6130188;23;20087;-90
2023/03/04 04:58:59;;;;;;;0.17;0.00;;;5.00;99.90;;;;;;6155281;23;20442;-90
2023/03/04 05:01:26;;;;;;;0.00;0.00;;;5.00;99.90;;;;;;6154741;23;20018;-90
2023/03/04 05:03:52;;;;;;;0.00;0.00;;;5.00;99.90;;;;;;6154941;23;20018;-90
2023/03/04 05:06:20;;;;;;;0.00;0.00;;;5.00;99.90;;;;;;6129678;23;20064;-90
2023/03/04 05:08:46;;;;;;;0.00;0.00;;;5.00;99.90;;;;;;6130191;23;20022;-91
2023/03/04 05:11:12;;;;;;;0.05;0.05;;;5.00;99.90;;;;;;6154043;23;20013;-88
2023/03/04 05:13:38;;;;;;;0.00;0.00;;;5.00;99.90;;;;;;6129649;23;20021;-90
2023/03/04 05:16:04;;;;;;;0.00;0.00;;;5.00;99.90;;;;;;6154313;23;20115;-89
2023/03/04 05:18:30;;;;;;;0.10;0.10;;;4.90;99.90;;;;;;6153842;23;20021;-90
2023/03/04 05:21:01;;;;;;;0.05;0.00;;;5.00;99.90;;;;;;6129200;23;20354;-90
2023/03/04 05:23:28;;;;;;;0.38;0.00;;;4.90;99.90;;;;;;6129168;23;20024;-89
2023/03/04 05:25:55;;;;;;;0.00;0.00;;;4.90;99.90;;;;;;6129843;23;20049;-89
2023/03/04 05:28:20;;;;;;;0.10;0.10;;;4.90;99.90;;;;;;6153918;23;20021;-90
2023/03/04 05:30:46;;;;;;;0.00;0.00;;;5.00;99.90;;;;;;6154332;23;20430;-90
2023/03/04 05:33:14;;;;;;;0.00;0.00;;;4.90;99.90;;;;;;6154184;23;20017;-89
2023/03/04 05:35:40;;;;;;;0.00;0.00;;;3.70;99.90;;;;;;6128953;23;20021;-90
2023/03/04 05:38:08;;;;;;;0.00;0.00;;;3.70;99.90;;;;;;6129771;23;20017;-90
2023/03/04 05:40:35;;;;;;;0.00;0.00;;;4.90;99.90;;;;;;6154284;23;20477;-89
2023/03/04 05:43:01;;;;;;;0.00;0.00;;;4.80;99.90;;;;;;6154753;23;20449;-90
2023/03/04 05:45:26;;;;;;;0.10;0.10;;;5.60;99.90;;;;;;6128996;23;20021;-90
2023/03/04 05:47:53;;;;;;;0.03;0.03;;;4.90;99.90;;;;;;6154619;23;20018;-90
2023/03/04 05:50:20;;;;;;;2.55;0.57;;;4.90;99.90;;;;;;6129853;23;20446;-89
2023/03/04 05:52:46;;;;;;;;;;;4.80;99.90;;;;;;6130623;23;20026;-90
2023/03/04 05:55:12;;;;;;;0.10;0.05;;;4.80;99.90;;;;;;6129897;23;19963;-90
2023/03/04 05:57:38;;;;;;;0.10;0.10;;;4.80;99.90;;;;;;6129352;23;20096;-90
2023/03/04 06:00:08;;;;;;;0.10;0.00;;;4.80;99.90;;;;;;6130074;23;20055;-90
2023/03/04 06:02:34;;;;;;;0.03;0.03;;;4.80;99.90;;;;;;6153919;23;20089;-89
2023/03/04 06:05:00;;;;;;;0.00;0.00;;;4.80;99.90;;;;;;6129114;23;20052;-90
2023/03/04 06:07:26;;;;;;;0.00;0.00;;;4.80;99.90;;;;;;6128714;23;20022;-90
2023/03/04 06:09:51;;;;;;;0.00;0.00;;;4.80;99.90;;;;;;6154567;23;20022;-90
2023/03/04 06:12:17;;;;;;;0.00;0.00;;;4.90;99.90;;;;;;6128888;23;20021;-89
2023/03/04 06:14:43;;;;;;;0.30;0.30;;;4.80;99.90;;;;;;6153656;23;20092;-89
2023/03/04 06:17:09;;;;;;;0.40;0.10;;;4.80;99.90;;;;;;6129341;23;20025;-89
2023/03/04 06:19:36;;;;;;;0.07;0.03;;;4.80;99.90;;;;;;6128434;23;20087;-90
2023/03/04 06:22:03;;;;;;;0.00;0.00;;;4.90;99.90;;;;;;6153909;23;20383;-89
2023/03/04 06:24:29;;;;;;;;;;;4.90;99.90;;;;;;6129294;23;20060;-90
2023/03/04 06:26:55;;;;;;;0.10;0.00;;;4.80;99.90;;;;;;6104829;23;19923;-90
2023/03/04 06:29:21;;;;;;;0.00;0.00;;;4.90;99.90;;;;;;6153618;23;20115;-90
2023/03/04 06:31:47;;;;;;;0.10;0.10;;;4.90;99.90;;;;;;6129212;23;20107;-89
2023/03/04 06:34:12;;;;;;;0.00;0.00;;;4.80;99.90;;;;;;6153758;23;20017;-90
2023/03/04 06:36:38;;;;;;;0.00;0.00;;;4.90;99.90;;;;;;6128706;23;20014;-89
2023/03/04 06:39:05;;;;;;;0.00;0.00;;;4.90;99.90;;;;;;6129087;23;20398;-89
2023/03/04 06:41:31;;;;;;;;;;;4.90;99.90;;;;;;6129271;23;20014;-87
2023/03/04 06:43:57;;;;;;;0.00;0.00;;;4.90;99.90;;;;;;6157188;23;19951;-90
2023/03/04 06:46:23;;;;;;;0.00;0.00;;;4.90;99.90;;;;;;6153434;23;20032;-88
2023/03/04 06:48:48;;;;;;;0.00;0.00;;;4.90;99.90;;;;;;6129449;23;20021;-90
2023/03/04 06:51:14;;;;;;;0.00;0.00;;;5.00;99.90;;;;;;6153778;23;20315;-90
2023/03/04 06:53:40;;;;;;;0.00;0.00;;;5.10;99.90;;;;;;6153291;23;20022;-92
2023/03/04 06:56:09;;;;;;;0.20;0.00;;;4.90;99.90;;;;;;6153828;23;20022;-92
2023/03/04 06:58:35;;;;;;;0.00;0.00;;;5.00;99.90;;;;;;6153251;23;20029;-87
2023/03/04 07:01:10;;;;;;;0.00;0.00;;;5.10;99.90;;;;;;6128598;23;20025;-85
2023/03/04 07:03:36;;;;;;;0.00;0.00;;;5.10;99.90;;;;;;6152914;23;20153;-85
2023/03/04 07:06:02;;;;;;;0.00;0.00;;;5.10;99.90;;;;;;6128567;23;20026;-88
2023/03/04 07:08:27;;;;;;;0.10;0.10;;;5.10;99.90;;;;;;6152617;23;20080;-89
2023/03/04 07:10:53;;;;;;;2.57;0.50;;;5.10;99.90;;;;;;6128743;23;20614;-83
2023/03/04 07:13:19;;;;;;;0.00;0.00;;;5.10;99.90;;;;;;6153596;23;20104;-88
2023/03/04 07:15:45;;;;;;;0.20;0.20;;;5.20;99.90;;;;;;6128209;23;20055;-83
2023/03/04 07:18:10;;;;;;;0.00;0.00;;;5.20;99.90;;;;;;6177826;23;20107;-89
2023/03/04 07:20:36;;;;;;;0.23;0.10;;;5.20;99.90;;;;;;6127944;23;20473;-91
2023/03/04 07:23:02;;;;;;;0.00;0.00;;;5.30;99.90;;;;;;6153500;23;20029;-85
2023/03/04 07:25:28;;;;;;;0.00;0.00;;;5.40;99.90;;;;;;6153860;23;20028;-85
2023/03/04 07:27:53;;;;;;;1.23;0.00;;;5.60;99.90;;;;;;6178272;23;20092;-85
2023/03/04 07:30:19;;;;;;;3.10;0.63;;;5.60;99.90;;;;;;6129068;23;20061;-86
2023/03/04 07:32:45;;;;;;;0.00;0.00;;;5.60;99.90;;;;;;6153126;23;20343;-86
2023/03/04 07:35:11;;;;;;;0.10;0.10;;;5.60;99.90;;;;;;6128805;23;20017;-84
2023/03/04 07:37:36;;;;;;;0.00;0.00;;;5.60;99.90;;;;;;6152738;23;20381;-84
2023/03/04 07:40:02;;;;;;;1.40;0.10;;;5.60;99.90;;;;;;6153052;23;20044;-90
2023/03/04 07:42:28;;;;;;;0.00;0.00;;;5.70;99.90;;;;;;6128474;23;20096;-85
2023/03/04 07:44:54;;;;;;;0.57;0.00;;;5.70;99.90;;;;;;6129689;23;20052;-84
2023/03/04 07:47:20;;;;;;;0.00;0.00;;;5.70;99.90;;;;;;6155816;23;20020;-83
2023/03/04 07:49:45;;;;;;;0.00;0.00;;;5.70;99.90;;;;;;6130100;23;20018;-84
2023/03/04 07:52:13;;;;;;;0.00;0.00;;;5.70;99.90;;;;;;6179905;23;20370;-84
2023/03/04 07:54:39;;;;;;;0.00;0.00;;;5.70;99.90;;;;;;6154569;23;20021;-85
2023/03/04 07:57:04;;;;;;;0.00;0.00;;;5.70;99.90;;;;;;6155049;23;20492;-83
2023/03/04 07:59:30;;;;;;;0.00;0.00;;;5.70;99.90;;;;;;6154853;23;20044;-83
2023/03/04 08:01:56;;;;;;;0.00;0.00;;;5.70;99.90;;;;;;6154492;23;20017;-84
2023/03/04 08:04:21;;;;;;;0.17;0.00;;;5.60;99.90;;;;;;6130426;23;20032;-84
2023/03/04 08:06:47;;;;;;;0.20;0.00;;;5.60;99.90;;;;;;6129917;23;20036;-84
2023/03/04 08:09:13;;;;;;;0.00;0.00;;;5.60;99.90;;;;;;6154665;23;20025;-85
2023/03/04 08:11:40;;;;;;;0.00;0.00;;;5.60;99.90;;;;;;6154222;23;20018;-84
2023/03/04 08:14:06;;;;;;;0.00;0.00;;;5.70;99.90;;;;;;6129978;23;20342;-85
2023/03/04 08:16:32;;;;;;;0.25;0.00;;;5.80;99.90;;;;;;6154834;23;20017;-85
2023/03/04 08:19:01;;;;;;;0.97;0.00;;;5.80;99.90;;;;;;6129614;23;20024;-85
2023/03/04 08:21:27;;;;;;;0.00;0.00;;;5.80;99.90;;;;;;6154797;23;20021;-85
2023/03/04 08:23:55;;;;;;;0.00;0.00;;;5.80;99.90;;;;;;6154208;23;20092;-85
2023/03/04 08:26:27;;;;;;;0.00;0.00;;;5.80;99.90;;;;;;6130376;23;20084;-85
2023/03/04 08:28:54;;;;;;;0.32;0.22;;;5.90;99.90;;;;;;6129510;23;20018;-85
2023/03/04 08:31:20;;;;;;;0.00;0.00;;;5.90;99.90;;;;;;6154620;23;20014;-84
2023/03/04 08:33:47;;;;;;;0.00;0.00;;;6.00;99.90;;;;;;6154277;23;20085;-84
2023/03/04 08:36:14;;;;;;;0.00;0.00;;;6.00;99.90;;;;;;6130066;23;20096;-84
2023/03/04 08:38:40;;;;;;;0.03;0.00;;;6.00;99.90;;;;;;6129379;23;20021;-84
2023/03/04 08:41:06;;;;;;;0.00;0.00;;;6.00;99.90;;;;;;6154533;23;20053;-85
2023/03/04 08:43:32;;;;;;;0.00;0.00;;;5.90;99.90;;;;;;6154747;23;20045;-83
2023/03/04 08:45:58;;;;;;;0.10;0.10;;;5.90;99.90;;;;;;6154021;23;20018;-84
2023/03/04 08:48:25;;;;;;;0.20;0.20;;;5.80;99.90;;;;;;6129274;23;20018;-85
2023/03/04 08:50:51;;;;;;;0.15;0.15;;;5.80;99.90;;;;;;6154949;23;20018;-83
2023/03/04 08:53:18;;;;;;;0.00;0.00;;;5.80;99.90;;;;;;6153620;23;20029;-83
2023/03/04 08:55:45;;;;;;;0.10;0.10;;;5.80;99.90;;;;;;6153988;23;20128;-83
2023/03/04 08:58:11;;;;;;;0.00;0.00;;;5.80;99.90;;;;;;6154362;23;20021;-83
2023/03/04 09:00:39;;;;;;;0.10;0.10;;;5.90;99.90;;;;;;6130107;23;20024;-83
2023/03/04 09:03:05;;;;;;;0.10;0.10;;;5.90;99.90;;;;;;6153850;23;20017;-84
2023/03/04 09:05:31;;;;;;;0.03;0.03;;;5.90;99.90;;;;;;6178597;23;20092;-87
2023/03/04 09:07:57;;;;;;;0.00;0.00;;;5.90;99.90;;;;;;6155425;23;20026;-92
2023/03/04 09:10:23;;;;;;;0.10;0.00;;;5.90;99.90;;;;;;6155361;23;20029;-88
2023/03/04 09:12:50;;;;;;;0.05;0.05;;;5.90;99.90;;;;;;6153835;23;20029;-91
2023/03/04 09:15:16;;;;;;;;;;;6.00;99.90;;;;;;6154681;23;20024;-82
2023/03/04 09:17:44;;;;;;;0.00;0.00;;;5.90;99.90;;;;;;6129857;23;19951;-84
2023/03/04 09:20:11;;;;;;;0.28;0.00;;;5.90;99.90;;;;;;6128639;23;20077;-88
2023/03/04 09:22:38;;;;;;;0.00;0.00;;;6.00;99.90;;;;;;6129885;23;20390;-84
2023/03/04 09:25:05;;;;;;;0.93;0.10;;;5.90;99.90;;;;;;6154078;23;20044;-83
2023/03/04 09:27:31;;;;;;;0.00;0.00;;;5.90;99.90;;;;;;6154528;23;20085;-84
2023/03/04 09:29:57;;;;;;;0.00;0.00;;;5.90;99.90;;;;;;6155069;23;20375;-84
2023/03/04 09:32:22;;;;;;;0.10;0.10;;;5.90;99.90;;;;;;6129632;23;20022;-82
2023/03/04 09:34:48;;;;;;;0.30;0.20;;;5.90;99.90;;;;;;6179175;23;20018;-87
2023/03/04 09:37:14;;;;;;;0.53;0.10;;;6.00;99.90;;;;;;6154431;23;20013;-80
2023/03/04 09:39:39;;;;;;;0.97;0.20;;;6.00;99.90;;;;;;6154937;23;20077;-82
2023/03/04 09:42:08;;;;;;;0.23;0.23;;;6.10;99.90;;;;;;6129781;23;20018;-82
2023/03/04 09:44:38;;;;;;;0.10;0.10;;;6.10;99.90;;;;;;6155980;23;20346;-83
2023/03/04 09:47:20;;;;;;;0.03;0.03;;;6.20;99.90;;;;;;6129617;23;20065;-85
2023/03/04 09:49:54;;;;;;;0.00;0.00;;;6.10;99.90;;;;;;6154808;23;20083;-84
2023/03/04 09:52:19;;;;;;;0.50;0.47;;;6.20;99.90;;;;;;6154795;23;20405;-88
2023/03/04 09:55:13;;;;;;;0.13;0.13;;;6.20;99.90;;;;;;6179537;23;20018;-79
2023/03/04 09:57:42;;;;;;;1.73;0.10;;;6.30;99.90;;;;;;6179211;23;20017;-81
2023/03/04 10:00:26;;;;;;;0.00;0.00;;;6.30;99.90;;;;;;6155121;23;20036;-83
2023/03/04 10:03:37;;;;;;;0.10;0.10;;;6.30;99.90;;;;;;6129336;23;20040;-89
2023/03/04 10:06:10;;;;;;;0.47;0.13;;;6.30;99.90;;;;;;6149968;23;20014;-86
2023/03/04 10:08:51;;;;;;;0.17;0.00;;;6.30;99.90;;;;;;6154128;23;20026;-84
2023/03/04 10:11:20;;;;;;;0.03;0.00;;;7.10;99.90;;;;;;6152182;23;20453;-86
2023/03/04 10:13:59;;;;;;;0.08;0.08;;;6.20;99.90;;;;;;6151291;23;20101;-85
2023/03/04 10:16:31;;;;;;;0.00;0.00;;;6.10;99.90;;;;;;6151645;23;20059;-87
2023/03/04 10:19:21;;;;;;;0.00;0.00;;;6.20;99.90;;;;;;6152232;23;20076;-88
2023/03/04 10:21:49;;;;;;;0.00;0.00;;;6.20;99.90;;;;;;6144080;23;20025;-86
2023/03/04 10:24:18;;;;;;;0.10;0.10;;;6.20;99.90;;;;;;6153317;23;20531;-85
2023/03/04 10:26:45;;;;;;;0.00;0.00;;;6.30;99.90;;;;;;6136425;23;20018;-82
2023/03/04 10:29:17;;;;;;;0.00;0.00;;;6.40;99.90;;;;;;6127463;23;20018;-85
2023/03/04 10:31:44;;;;;;;0.00;0.00;;;6.40;99.90;;;;;;6128321;23;20484;-86
2023/03/04 10:34:11;;;;;;;;;;;6.60;99.90;;;;;;6152877;23;20072;-84
2023/03/04 10:36:45;;;;;;;0.08;0.00;;;6.70;99.90;;;;;;6127685;23;20380;-84
2023/03/04 10:39:18;;;;;;;0.10;0.08;;;6.90;99.90;;;;;;6127846;23;20021;-84
2023/03/04 10:41:53;;;;;;;0.00;0.00;;;6.90;99.90;;;;;;6153132;23;20010;-85
2023/03/04 10:44:18;;;;;;;0.00;0.00;;;6.90;99.90;;;;;;6152494;23;20025;-85
2023/03/04 10:46:47;;;;;;;0.20;0.20;;;6.80;99.90;;;;;;6152794;23;20024;-85
2023/03/04 10:49:16;;;;;;;0.10;0.10;;;6.60;99.90;;;;;;6152252;23;20018;-85
2023/03/04 10:51:49;;;;;;;0.00;0.00;;;6.50;99.90;;;;;;6152658;23;20019;-84
2023/03/04 10:54:26;;;;;;;0.08;0.08;;;6.50;99.90;;;;;;6176976;23;20057;-84
2023/03/04 10:56:52;;;;;;;0.00;0.00;;;6.60;99.90;;;;;;6177340;23;20021;-85
2023/03/04 10:59:31;;;;;;;0.00;0.00;;;6.60;99.90;;;;;;6153463;23;20438;-84
2023/03/04 11:01:58;;;;;;;0.15;0.15;;;6.60;99.90;;;;;;6185651;23;20013;-85
2023/03/04 11:04:26;;;;;;;0.47;0.47;;;6.70;99.90;;;;;;6129609;23;20128;-84
2023/03/04 11:06:52;;;;;;;0.10;0.00;;;6.70;99.90;;;;;;6155491;23;20020;-85
2023/03/04 11:09:24;;;;;;;0.10;0.10;;;6.70;99.90;;;;;;6153704;23;20095;-85
2023/03/04 11:11:54;;;;;;;1.40;0.40;;;6.70;99.90;;;;;;6153588;23;20017;-87
2023/03/04 11:14:48;;;;;;;6.13;0.43;;;6.60;99.90;;;;;;6153153;23;20022;-86
2023/03/04 11:17:24;;;;;;;0.10;0.10;;;6.60;99.90;;;;;;6128500;23;20435;-86
2023/03/04 11:20:07;;;;;;;0.20;0.20;;;6.60;99.90;;;;;;6128809;23;20026;-85
2023/03/04 11:22:33;;;;;;;0.00;0.00;;;6.60;99.90;;;;;;6178951;23;20328;-84
2023/03/04 11:25:06;;;;;;;0.00;0.00;;;6.60;99.90;;;;;;6129428;23;20026;-84
2023/03/04 11:27:39;;;;;;;0.00;0.00;;;6.60;99.90;;;;;;6154375;23;20381;-83
2023/03/04 11:30:29;;;;;;;0.00;0.00;;;6.70;99.90;;;;;;6153438;23;20024;-87
2023/03/04 11:33:05;;;;;;;0.10;0.10;;;6.80;99.90;;;;;;6153398;23;20017;-83
2023/03/04 11:35:47;;;;;;;0.50;0.20;;;6.90;99.90;;;;;;6153718;23;20013;-86
2023/03/04 11:38:23;;;;;;;0.30;0.15;;;7.00;99.90;;;;;;6178456;23;20020;-82
2023/03/04 11:41:19;;;;;;;0.00;0.00;;;7.00;99.90;;;;;;6155441;23;20097;-83
2023/03/04 11:43:46;;;;;;;0.00;0.00;;;7.10;99.90;;;;;;6152921;23;20025;-85
2023/03/04 11:46:24;;;;;;;0.00;0.00;;;7.10;99.90;;;;;;6178117;23;20017;-83
2023/03/04 11:49:08;;;;;;;0.00;0.00;;;7.10;99.90;;;;;;6153807;23;20021;-90
2023/03/04 11:52:09;;;;;;;0.00;0.00;;;7.10;99.90;;;;;;6153728;23;20018;-83
2023/03/04 11:54:43;;;;;;;0.00;0.00;;;7.20;99.90;;;;;;6153742;23;20056;-86
2023/03/04 11:57:35;;;;;;;0.10;0.10;;;7.20;99.90;;;;;;6153279;23;20025;-85
2023/03/04 12:00:28;;;;;;;0.00;0.00;;;7.20;99.90;;;;;;6126572;23;20013;-85
2023/03/04 12:03:17;;;;;;;0.50;0.20;;;7.20;99.90;;;;;;6153635;23;20066;-86
2023/03/04 12:06:26;;;;;;;0.52;0.30;;;7.60;99.90;;;;;;6129232;23;20048;-85
2023/03/04 12:09:14;;;;;;;0.00;0.00;;;7.70;99.90;;;;;;6127932;23;20359;-85
2023/03/04 12:12:14;;;;;;;0.80;0.20;;;7.70;99.90;;;;;;6153774;23;20014;-86
2023/03/04 12:14:48;;;;;;;0.73;0.20;;;7.60;99.90;;;;;;6154210;23;20390;-86
2023/03/04 12:17:32;;;;;;;0.00;0.00;;;7.50;99.90;;;;;;6153211;23;20021;-85
2023/03/04 12:20:16;;;;;;;0.00;0.00;;;7.40;99.90;;;;;;6129102;23;20088;-85
2023/03/04 12:22:51;;;;;;;0.00;0.00;;;7.20;99.90;;;;;;6153534;23;20022;-85
2023/03/04 12:25:32;;;;;;;0.00;0.00;;;6.50;99.90;;;;;;6153397;23;20092;-85
2023/03/04 12:28:16;;;;;;;0.00;0.00;;;7.30;99.90;;;;;;6178423;23;20057;-86
2023/03/04 12:31:11;;;;;;;0.10;0.10;;;7.30;99.90;;;;;;6155349;23;20029;-86
2023/03/04 12:33:58;;;;;;;0.10;0.00;;;7.20;99.90;;;;;;6130640;23;20021;-91
2023/03/04 12:36:39;;;;;;;0.83;0.20;;;7.10;99.90;;;;;;6154815;23;20017;-84
2023/03/04 12:39:16;;;;;;;0.10;0.10;;;7.10;99.90;;;;;;6180360;23;20049;-90
2023/03/04 12:41:44;;;;;;;0.25;0.22;;;7.10;99.90;;;;;;6155680;23;20347;-88
2023/03/04 12:44:19;;;;;;;0.00;0.00;;;7.10;99.90;;;;;;6156987;23;20049;-88
2023/03/04 12:47:16;;;;;;;0.45;0.20;;;7.20;99.90;;;;;;6180162;23;20018;-89
2023/03/04 12:49:59;;;;;;;1.55;0.00;;;7.40;99.90;;;;;;6155583;23;20020;-86
2023/03/04 12:52:43;;;;;;;0.30;0.10;;;7.30;99.90;;;;;;6130182;23;20017;-87
2023/03/04 12:55:16;;;;;;;0.10;0.10;;;7.40;99.90;;;;;;6155450;23;20200;-86
2023/03/04 12:57:45;;;;;;;0.98;0.20;;;7.40;99.90;;;;;;6130828;23;20025;-86
2023/03/04 13:00:23;;;;;;;0.10;0.10;;;7.30;99.90;;;;;;6155172;23;20498;-86
2023/03/04 13:03:29;;;;;;;0.10;0.10;;;7.20;99.90;;;;;;6155323;23;20395;-86
2023/03/04 13:06:07;;;;;;;2.05;0.30;;;7.00;99.90;;;;;;6075759;23;20023;-86
2023/03/04 13:08:50;;;;;;;0.65;0.15;;;6.90;99.90;;;;;;6123853;23;20100;-86
2023/03/04 13:11:25;;;;;;;0.30;0.10;;;6.80;99.90;;;;;;6135718;23;20096;-86